Pagina principale
METAR-TAF:

METAR-TAF

Aeroporti :

Kecskemét, Ungheria

latitudine: 46-55N, longitudine: 019-45E, altezza: 113 m

Osservazione

Il bollettino è stato emesso 28 minuti fa, alle 20:45 UTC
Vento 5 kt da sud/sud-est, variando fra sud-est e sud
Temperature 5°C
Umidità 81%
Pressione 1021 hPa
Visibilità 10 km o più
nessuna nube inferiore a 1500 m e nessun cumulonembo

METAR: LHKE 212045Z 16005KT 130V190 CAVOK 05/02 Q1021 NOSIG RMK BLU

Ora: 22:13 (21:13 UTC)

Previsione

Il bollettino è stato emesso 58 minuti fa, alle 20:15 UTC
Previsione valida dal 21 alle 21 UTC al 22 alle 06 UTC
Vento 7 kt da sud/sud-est
Visibilità 10 km o più
nessuna nube inferiore a 1500 m e nessun cumulonembo
Temporaneamente
dal 22 alle 04 UTC al 22 alle 06 UTC
Vento 10 kt da sud

TAF: LHKE 212015Z 2121/2206 16007KT CAVOK TEMPO 2204/2206 17010KT

Osservazioni e previsioni meteorologiche di più di 4000 aeroporti (messaggi METAR e TAF).

Le stazioni disponibili sono rappresentate dai dischi gialli e rossi sulla carta.

Puntare il mouse per vedere il nome della stazione.

Clicca sopra per visualizzare le osservazioni e previsioni meteorologiche.

Per cambiare la mappa : fare clic sui pulsanti verdi con una croce nera per ingrandire, il pulsante verde con un trattino per diminuire, o sulla freccia verde per le mappe adiacenti.


METAR-TAF: